createdAt,value
2022-08-01T00:04:31.785Z,18.19
2022-08-01T00:09:33.517Z,18.13
2022-08-01T00:14:35.157Z,18.09
2022-08-01T00:19:36.781Z,18.03
2022-08-01T00:24:38.390Z,18.05
2022-08-01T00:30:12.592Z,17.91
2022-08-01T00:35:01.692Z,17.83
2022-08-01T00:40:03.860Z,17.77
2022-08-01T00:45:06.108Z,17.84
2022-08-01T00:50:08.543Z,17.92
2022-08-01T00:55:15.288Z,17.94
2022-08-01T01:00:17.174Z,17.93
2022-08-01T01:05:19.061Z,17.86
2022-08-01T01:10:32.649Z,17.89
2022-08-01T01:15:58.954Z,17.84
2022-08-01T01:21:25.734Z,17.75
2022-08-01T01:26:39.315Z,17.72
2022-08-01T01:32:04.336Z,17.60
2022-08-01T01:37:10.266Z,17.60
2022-08-01T01:42:12.104Z,17.59
2022-08-01T01:47:17.261Z,17.58
2022-08-01T01:52:19.869Z,17.49
2022-08-01T01:57:23.936Z,17.46
2022-08-01T02:02:25.818Z,17.48
2022-08-01T02:07:29.102Z,17.54
2022-08-01T02:12:34.295Z,17.60
2022-08-01T02:17:40.769Z,17.53
2022-08-01T02:22:47.536Z,17.50
2022-08-01T02:28:01.630Z,17.37
2022-08-01T02:33:15.678Z,17.45
2022-08-01T02:38:19.278Z,17.40
2022-08-01T02:43:24.887Z,17.38
2022-08-01T02:48:28.112Z,17.27
2022-08-01T02:53:43.819Z,17.21
2022-08-01T02:58:48.300Z,17.28
2022-08-01T03:03:51.415Z,17.33
2022-08-01T03:08:54.848Z,17.41
2022-08-01T03:13:58.192Z,17.47
2022-08-01T03:19:02.994Z,17.45
2022-08-01T03:24:06.440Z,17.44
2022-08-01T03:29:13.850Z,17.45
2022-08-01T03:34:16.432Z,17.49
2022-08-01T03:39:20.319Z,17.57
2022-08-01T03:44:27.085Z,17.54
2022-08-01T03:49:32.972Z,17.61
2022-08-01T03:54:41.209Z,17.67
2022-08-01T03:59:44.108Z,17.70
2022-08-01T04:04:46.366Z,17.75
2022-08-01T04:09:47.951Z,17.78
2022-08-01T04:14:50.507Z,17.82
2022-08-01T04:19:52.101Z,17.83
2022-08-01T04:24:58.210Z,17.90
2022-08-01T04:30:01.552Z,17.98
2022-08-01T04:35:22.886Z,17.88
2022-08-01T04:40:30.527Z,17.80
2022-08-01T04:45:33.669Z,17.82
2022-08-01T04:50:37.549Z,17.75
2022-08-01T04:55:39.142Z,17.80
2022-08-01T05:00:40.711Z,17.78
2022-08-01T05:05:42.484Z,17.90
2022-08-01T05:10:44.259Z,17.98
2022-08-01T05:15:45.897Z,18.05
2022-08-01T05:20:48.421Z,18.09
2022-08-01T05:25:57.410Z,18.18
2022-08-01T05:30:59.919Z,18.20
2022-08-01T05:36:01.598Z,18.38
2022-08-01T05:41:03.243Z,18.52
2022-08-01T05:46:04.845Z,18.65
2022-08-01T05:51:06.527Z,18.75
2022-08-01T05:56:08.190Z,18.82
2022-08-01T06:01:09.834Z,18.89
2022-08-01T06:06:11.696Z,19.00
2022-08-01T06:11:13.651Z,19.25
2022-08-01T06:16:15.233Z,19.48
2022-08-01T06:21:16.888Z,19.71
2022-08-01T06:26:19.586Z,20.02
2022-08-01T06:31:21.176Z,20.34
2022-08-01T06:36:22.781Z,20.64
2022-08-01T06:41:24.601Z,20.88
2022-08-01T06:46:30.267Z,21.03
2022-08-01T06:51:33.767Z,21.21
2022-08-01T06:56:36.292Z,21.40
2022-08-01T07:01:38.036Z,21.47
2022-08-01T07:06:41.199Z,21.79
2022-08-01T07:11:42.847Z,22.11
2022-08-01T07:16:44.464Z,22.39
2022-08-01T07:21:46.060Z,22.67
2022-08-01T07:26:53.821Z,22.84
2022-08-01T07:31:57.827Z,22.80
2022-08-01T07:36:59.431Z,23.08
2022-08-01T07:42:07.509Z,23.30
2022-08-01T07:47:09.913Z,23.49
2022-08-01T07:52:11.560Z,23.67
2022-08-01T07:57:13.219Z,23.63
2022-08-01T08:02:14.894Z,23.83
2022-08-01T08:07:17.123Z,24.12
2022-08-01T08:12:18.791Z,24.00
2022-08-01T08:17:36.200Z,24.05
2022-08-01T08:22:38.705Z,24.22
2022-08-01T08:27:40.283Z,24.64
2022-08-01T08:32:42.743Z,24.88
2022-08-01T08:37:47.592Z,25.14
2022-08-01T08:42:49.651Z,25.05
2022-08-01T08:47:53.347Z,24.41
2022-08-01T08:52:57.415Z,24.23
2022-08-01T08:58:01.564Z,24.17
2022-08-01T09:03:03.366Z,24.09
2022-08-01T09:08:08.737Z,24.00
2022-08-01T09:13:14.018Z,24.10
2022-08-01T09:18:37.087Z,24.38
2022-08-01T09:23:54.215Z,24.65
2022-08-01T09:28:56.641Z,24.73
2022-08-01T09:34:05.121Z,25.08
2022-08-01T09:39:13.212Z,25.27
2022-08-01T09:44:18.660Z,25.91
2022-08-01T09:49:51.743Z,26.18
2022-08-01T09:54:57.505Z,26.06
2022-08-01T10:00:02.195Z,26.11
2022-08-01T10:05:09.348Z,26.11
2022-08-01T10:10:16.207Z,25.80
2022-08-01T10:15:19.389Z,26.07
2022-08-01T10:20:30.005Z,26.11
2022-08-01T10:25:46.609Z,26.12
2022-08-01T10:30:49.644Z,26.23
2022-08-01T10:35:52.642Z,26.06
2022-08-01T10:40:55.952Z,26.25
2022-08-01T10:45:58.092Z,26.53
2022-08-01T10:51:04.733Z,26.95
2022-08-01T10:56:19.439Z,27.08
2022-08-01T11:01:25.751Z,27.23
2022-08-01T11:06:33.603Z,27.01
2022-08-01T11:12:07.334Z,26.87
2022-08-01T11:17:42.568Z,26.97
2022-08-01T11:23:03.370Z,26.68
2022-08-01T11:28:32.789Z,26.80
2022-08-01T11:33:45.760Z,26.94
2022-08-01T11:38:51.376Z,27.06
2022-08-01T11:44:21.215Z,26.90
2022-08-01T11:49:36.018Z,26.95
2022-08-01T11:54:45.239Z,26.97
2022-08-01T12:00:02.852Z,27.04
2022-08-01T12:05:12.120Z,27.07
2022-08-01T12:10:16.873Z,27.01
2022-08-01T12:15:21.211Z,27.06
2022-08-01T12:20:24.260Z,27.52
2022-08-01T12:25:25.937Z,27.51
2022-08-01T12:30:28.132Z,27.53
2022-08-01T12:35:31.002Z,27.39
2022-08-01T12:40:35.848Z,27.27
2022-08-01T12:45:54.376Z,27.08
2022-08-01T12:51:01.442Z,27.20
2022-08-01T12:56:03.173Z,27.20
2022-08-01T13:01:10.566Z,27.13
2022-08-01T13:06:17.836Z,26.92
2022-08-01T13:11:20.905Z,26.93
2022-08-01T13:16:30.658Z,27.33
2022-08-01T13:21:53.839Z,27.07
2022-08-01T13:27:03.552Z,27.00
2022-08-01T13:32:29.236Z,27.03
2022-08-01T13:37:32.355Z,26.84
2022-08-01T13:42:34.362Z,27.14
2022-08-01T13:47:36.057Z,27.15
2022-08-01T13:52:37.632Z,27.17
2022-08-01T13:57:39.423Z,27.12
2022-08-01T14:02:41.354Z,27.06
2022-08-01T14:07:43.829Z,27.30
2022-08-01T14:12:50.875Z,27.28
2022-08-01T14:17:52.779Z,27.18
2022-08-01T14:22:54.425Z,27.08
2022-08-01T14:27:56.141Z,26.69
2022-08-01T14:32:57.962Z,26.71
2022-08-01T14:37:59.602Z,27.03
2022-08-01T14:43:02.265Z,27.29
2022-08-01T14:48:04.139Z,27.16
2022-08-01T14:53:05.732Z,26.90
2022-08-01T14:58:07.357Z,26.96
2022-08-01T15:03:09.157Z,27.05
2022-08-01T15:08:10.731Z,27.18
2022-08-01T15:13:12.397Z,27.29
2022-08-01T15:18:13.993Z,27.41
2022-08-01T15:23:15.603Z,27.60
2022-08-01T15:28:17.311Z,27.51
2022-08-01T15:33:18.989Z,27.12
2022-08-01T15:38:20.641Z,27.27
2022-08-01T15:43:22.250Z,27.13
2022-08-01T15:48:24.092Z,26.79
2022-08-01T15:53:25.742Z,26.81
2022-08-01T15:58:27.381Z,26.02
2022-08-01T16:03:29.057Z,25.30
2022-08-01T16:08:30.725Z,25.37
2022-08-01T16:13:32.413Z,25.58
2022-08-01T16:18:34.108Z,25.27
2022-08-01T16:23:35.697Z,25.21
2022-08-01T16:28:37.838Z,25.30
2022-08-01T16:33:51.682Z,25.15
2022-08-01T16:38:56.205Z,25.02
2022-08-01T16:43:58.241Z,25.10
2022-08-01T16:49:00.058Z,24.89
2022-08-01T16:54:01.756Z,25.18
2022-08-01T16:59:03.496Z,24.95
2022-08-01T17:04:05.207Z,24.63
2022-08-01T17:09:06.885Z,24.33
2022-08-01T17:14:08.482Z,24.22
2022-08-01T17:19:10.238Z,24.00
2022-08-01T17:24:16.530Z,24.02
2022-08-01T17:29:18.386Z,24.15
2022-08-01T17:34:19.984Z,24.11
2022-08-01T17:39:23.766Z,24.03
2022-08-01T17:44:41.547Z,23.40
2022-08-01T17:49:54.899Z,23.54
2022-08-01T17:54:58.138Z,23.25
2022-08-01T17:59:59.795Z,23.35
2022-08-01T18:05:01.429Z,23.29
2022-08-01T18:10:11.624Z,22.98
2022-08-01T18:15:15.120Z,22.84
2022-08-01T18:20:16.969Z,22.84
2022-08-01T18:25:20.005Z,22.80
2022-08-01T18:30:21.680Z,22.79
2022-08-01T18:35:24.227Z,22.83
2022-08-01T18:40:46.102Z,22.87
2022-08-01T18:45:47.847Z,22.52
2022-08-01T18:50:49.475Z,22.70
2022-08-01T18:55:51.171Z,22.71
2022-08-01T19:00:52.884Z,22.50
2022-08-01T19:05:54.496Z,22.36
2022-08-01T19:10:56.115Z,22.52
2022-08-01T19:15:58.485Z,22.24
2022-08-01T19:21:01.027Z,22.24
2022-08-01T19:26:04.785Z,22.11
2022-08-01T19:31:08.447Z,22.12
2022-08-01T19:36:16.645Z,22.09
2022-08-01T19:41:19.227Z,22.00
2022-08-01T19:46:20.969Z,21.92
2022-08-01T19:51:33.076Z,22.01
2022-08-01T19:56:40.909Z,21.98
2022-08-01T20:01:43.889Z,21.98
2022-08-01T20:06:46.735Z,21.94
2022-08-01T20:11:51.489Z,22.06
2022-08-01T20:16:54.748Z,22.07
2022-08-01T20:22:04.634Z,22.16
2022-08-01T20:27:07.746Z,22.23
2022-08-01T20:32:09.797Z,22.18
2022-08-01T20:37:13.225Z,22.17
2022-08-01T20:42:16.134Z,22.06
2022-08-01T20:47:18.064Z,22.08
2022-08-01T20:52:21.026Z,21.98
2022-08-01T20:57:25.420Z,21.97
2022-08-01T21:02:35.891Z,21.84
2022-08-01T21:07:57.533Z,21.84
2022-08-01T21:13:07.571Z,21.82
2022-08-01T21:18:27.888Z,21.78
2022-08-01T21:23:59.324Z,21.61
2022-08-01T21:29:05.104Z,21.67
2022-08-01T21:34:08.183Z,21.72
2022-08-01T21:39:10.381Z,21.59
2022-08-01T21:44:14.711Z,21.51
2022-08-01T21:49:16.310Z,21.55
2022-08-01T21:54:28.580Z,21.56
2022-08-01T21:59:48.712Z,21.60
2022-08-01T22:05:00.368Z,21.44
2022-08-01T22:10:05.765Z,21.36
2022-08-01T22:15:08.412Z,21.37
2022-08-01T22:20:10.503Z,21.33
2022-08-01T22:25:12.378Z,21.19
2022-08-01T22:30:16.647Z,21.09
2022-08-01T22:35:18.288Z,21.12
2022-08-01T22:40:19.891Z,21.05
2022-08-01T22:45:40.364Z,20.78
2022-08-01T22:50:47.107Z,20.87
2022-08-01T22:55:58.585Z,20.82
2022-08-01T23:01:02.448Z,20.95
2022-08-01T23:06:45.128Z,20.86
2022-08-01T23:11:47.258Z,21.03
2022-08-01T23:16:51.136Z,20.89
2022-08-01T23:21:52.876Z,20.75
2022-08-01T23:26:55.423Z,20.81
2022-08-01T23:32:02.728Z,20.73
2022-08-01T23:37:05.237Z,20.74
2022-08-01T23:42:08.106Z,20.61
2022-08-01T23:47:10.078Z,20.59
2022-08-01T23:52:20.833Z,20.77
2022-08-01T23:57:23.380Z,20.58
